sensor_id;sensor_type;location;lat;lon;timestamp;temperature;humidity
25302;DHT22;13243;50.888;4.724;2023-06-01T00:00:08;18.90;99.90
25302;DHT22;13243;50.888;4.724;2023-06-01T00:05:16;18.80;99.90
25302;DHT22;13243;50.888;4.724;2023-06-01T00:10:18;18.70;99.90
25302;DHT22;13243;50.888;4.724;2023-06-01T00:15:20;18.50;99.90
25302;DHT22;13243;50.888;4.724;2023-06-01T00:20:22;18.20;99.90
25302;DHT22;13243;50.888;4.724;2023-06-01T00:25:26;18.20;99.90
25302;DHT22;13243;50.888;4.724;2023-06-01T00:30:28;18.10;99.90
25302;DHT22;13243;50.888;4.724;2023-06-01T00:35:30;18.10;99.90
25302;DHT22;13243;50.888;4.724;2023-06-01T00:40:33;17.90;99.90
25302;DHT22;13243;50.888;4.724;2023-06-01T00:45:36;17.80;99.90
25302;DHT22;13243;50.888;4.724;2023-06-01T00:50:39;17.80;99.90
25302;DHT22;13243;50.888;4.724;2023-06-01T00:55:41;17.70;99.90
25302;DHT22;13243;50.888;4.724;2023-06-01T01:00:43;17.60;99.90
25302;DHT22;13243;50.888;4.724;2023-06-01T01:05:45;17.40;99.90
25302;DHT22;13243;50.888;4.724;2023-06-01T01:21:10;17.20;99.90
25302;DHT22;13243;50.888;4.724;2023-06-01T01:32:03;17.20;99.90
25302;DHT22;13243;50.888;4.724;2023-06-01T01:37:05;17.10;99.90
25302;DHT22;13243;50.888;4.724;2023-06-01T01:42:08;16.80;99.90
25302;DHT22;13243;50.888;4.724;2023-06-01T01:47:36;16.70;99.90
25302;DHT22;13243;50.888;4.724;2023-06-01T01:52:42;16.70;99.90
25302;DHT22;13243;50.888;4.724;2023-06-01T01:57:45;16.70;99.90
25302;DHT22;13243;50.888;4.724;2023-06-01T02:02:47;16.50;99.90
25302;DHT22;13243;50.888;4.724;2023-06-01T02:07:49;16.70;99.90
25302;DHT22;13243;50.888;4.724;2023-06-01T02:12:51;16.60;99.90
25302;DHT22;13243;50.888;4.724;2023-06-01T02:17:53;16.50;99.90
25302;DHT22;13243;50.888;4.724;2023-06-01T02:22:55;16.50;99.90
25302;DHT22;13243;50.888;4.724;2023-06-01T02:27:57;16.40;99.90
25302;DHT22;13243;50.888;4.724;2023-06-01T02:32:59;16.30;99.90
25302;DHT22;13243;50.888;4.724;2023-06-01T02:38:01;16.10;99.90
25302;DHT22;13243;50.888;4.724;2023-06-01T02:43:04;16.20;99.90
25302;DHT22;13243;50.888;4.724;2023-06-01T02:48:06;16.00;99.90
25302;DHT22;13243;50.888;4.724;2023-06-01T02:53:08;16.00;99.90
25302;DHT22;13243;50.888;4.724;2023-06-01T02:58:10;15.90;99.90
25302;DHT22;13243;50.888;4.724;2023-06-01T03:03:18;15.80;99.90
25302;DHT22;13243;50.888;4.724;2023-06-01T03:08:20;15.80;99.90
25302;DHT22;13243;50.888;4.724;2023-06-01T03:13:22;15.60;99.90
25302;DHT22;13243;50.888;4.724;2023-06-01T03:18:24;15.60;99.90
25302;DHT22;13243;50.888;4.724;2023-06-01T03:23:26;15.50;99.90
25302;DHT22;13243;50.888;4.724;2023-06-01T03:28:29;15.50;99.90
25302;DHT22;13243;50.888;4.724;2023-06-01T03:33:31;15.40;99.90
25302;DHT22;13243;50.888;4.724;2023-06-01T03:38:33;15.20;99.90
25302;DHT22;13243;50.888;4.724;2023-06-01T03:43:36;15.20;99.90
25302;DHT22;13243;50.888;4.724;2023-06-01T03:48:37;15.00;99.90
25302;DHT22;13243;50.888;4.724;2023-06-01T03:53:39;15.00;99.90
25302;DHT22;13243;50.888;4.724;2023-06-01T03:58:41;15.00;99.90
25302;DHT22;13243;50.888;4.724;2023-06-01T04:03:43;14.90;99.90
25302;DHT22;13243;50.888;4.724;2023-06-01T04:08:46;14.90;99.90
25302;DHT22;13243;50.888;4.724;2023-06-01T04:13:52;14.80;99.90
25302;DHT22;13243;50.888;4.724;2023-06-01T04:18:54;14.80;99.90
25302;DHT22;13243;50.888;4.724;2023-06-01T04:23:56;14.90;99.90
25302;DHT22;13243;50.888;4.724;2023-06-01T04:28:58;14.80;99.90
25302;DHT22;13243;50.888;4.724;2023-06-01T04:34:01;14.80;99.90
25302;DHT22;13243;50.888;4.724;2023-06-01T04:39:03;14.80;99.90
25302;DHT22;13243;50.888;4.724;2023-06-01T04:44:05;14.80;99.90
25302;DHT22;13243;50.888;4.724;2023-06-01T04:49:07;14.60;99.90
25302;DHT22;13243;50.888;4.724;2023-06-01T04:54:09;14.80;99.90
25302;DHT22;13243;50.888;4.724;2023-06-01T04:59:11;14.80;99.90
25302;DHT22;13243;50.888;4.724;2023-06-01T05:04:14;14.80;99.90
25302;DHT22;13243;50.888;4.724;2023-06-01T05:09:16;14.90;99.90
25302;DHT22;13243;50.888;4.724;2023-06-01T05:14:19;14.80;99.90
25302;DHT22;13243;50.888;4.724;2023-06-01T05:19:21;14.80;99.90
25302;DHT22;13243;50.888;4.724;2023-06-01T05:24:23;14.80;99.90
25302;DHT22;13243;50.888;4.724;2023-06-01T05:29:25;14.80;99.90
25302;DHT22;13243;50.888;4.724;2023-06-01T05:34:27;14.90;99.90
25302;DHT22;13243;50.888;4.724;2023-06-01T05:39:30;14.80;99.90
25302;DHT22;13243;50.888;4.724;2023-06-01T05:44:31;14.70;99.90
25302;DHT22;13243;50.888;4.724;2023-06-01T05:49:35;14.90;99.90
25302;DHT22;13243;50.888;4.724;2023-06-01T05:54:37;15.10;99.90
25302;DHT22;13243;50.888;4.724;2023-06-01T05:59:39;14.60;99.90
25302;DHT22;13243;50.888;4.724;2023-06-01T06:04:40;14.70;99.90
25302;DHT22;13243;50.888;4.724;2023-06-01T06:09:42;14.90;99.90
25302;DHT22;13243;50.888;4.724;2023-06-01T06:14:44;14.60;99.90
25302;DHT22;13243;50.888;4.724;2023-06-01T06:19:47;14.70;99.90
25302;DHT22;13243;50.888;4.724;2023-06-01T06:24:51;14.70;99.90
25302;DHT22;13243;50.888;4.724;2023-06-01T06:29:52;14.80;99.90
25302;DHT22;13243;50.888;4.724;2023-06-01T06:34:54;14.80;99.90
25302;DHT22;13243;50.888;4.724;2023-06-01T06:39:56;14.90;99.90
25302;DHT22;13243;50.888;4.724;2023-06-01T06:44:58;14.90;99.90
25302;DHT22;13243;50.888;4.724;2023-06-01T06:50:00;14.90;99.90
25302;DHT22;13243;50.888;4.724;2023-06-01T06:55:02;14.80;99.90
25302;DHT22;13243;50.888;4.724;2023-06-01T07:00:07;14.80;99.90
25302;DHT22;13243;50.888;4.724;2023-06-01T07:05:09;15.20;99.90
25302;DHT22;13243;50.888;4.724;2023-06-01T07:10:12;15.10;99.90
25302;DHT22;13243;50.888;4.724;2023-06-01T07:15:14;15.30;99.90
25302;DHT22;13243;50.888;4.724;2023-06-01T07:20:18;15.40;99.90
25302;DHT22;13243;50.888;4.724;2023-06-01T07:25:20;15.70;99.90
25302;DHT22;13243;50.888;4.724;2023-06-01T07:30:22;15.50;99.90
25302;DHT22;13243;50.888;4.724;2023-06-01T07:35:24;15.80;99.90
25302;DHT22;13243;50.888;4.724;2023-06-01T07:40:27;15.90;99.90
25302;DHT22;13243;50.888;4.724;2023-06-01T07:45:29;16.00;99.90
25302;DHT22;13243;50.888;4.724;2023-06-01T07:50:31;15.80;99.90
25302;DHT22;13243;50.888;4.724;2023-06-01T07:55:33;16.50;99.90
25302;DHT22;13243;50.888;4.724;2023-06-01T08:00:35;16.60;99.90
25302;DHT22;13243;50.888;4.724;2023-06-01T08:05:39;16.40;99.90
25302;DHT22;13243;50.888;4.724;2023-06-01T08:10:42;16.40;99.90
25302;DHT22;13243;50.888;4.724;2023-06-01T08:15:45;16.40;99.90
25302;DHT22;13243;50.888;4.724;2023-06-01T08:20:49;16.60;99.90
25302;DHT22;13243;50.888;4.724;2023-06-01T08:25:51;16.50;99.90
25302;DHT22;13243;50.888;4.724;2023-06-01T08:30:52;16.70;99.90
25302;DHT22;13243;50.888;4.724;2023-06-01T08:35:54;16.80;99.90
25302;DHT22;13243;50.888;4.724;2023-06-01T08:40:59;16.70;99.90
25302;DHT22;13243;50.888;4.724;2023-06-01T08:46:05;17.10;99.90
25302;DHT22;13243;50.888;4.724;2023-06-01T08:51:08;17.30;99.90
25302;DHT22;13243;50.888;4.724;2023-06-01T08:56:10;17.10;99.90
25302;DHT22;13243;50.888;4.724;2023-06-01T09:01:21;17.30;99.90
25302;DHT22;13243;50.888;4.724;2023-06-01T09:06:25;17.50;99.90
25302;DHT22;13243;50.888;4.724;2023-06-01T09:11:28;18.00;99.90
25302;DHT22;13243;50.888;4.724;2023-06-01T09:16:36;18.00;99.90
25302;DHT22;13243;50.888;4.724;2023-06-01T09:21:55;18.20;99.90
25302;DHT22;13243;50.888;4.724;2023-06-01T09:26:59;18.50;99.90
25302;DHT22;13243;50.888;4.724;2023-06-01T09:32:04;18.60;99.90
25302;DHT22;13243;50.888;4.724;2023-06-01T09:37:06;18.50;99.90
25302;DHT22;13243;50.888;4.724;2023-06-01T09:42:09;18.80;99.90
25302;DHT22;13243;50.888;4.724;2023-06-01T09:47:12;19.00;99.90
25302;DHT22;13243;50.888;4.724;2023-06-01T09:52:17;18.90;99.90
25302;DHT22;13243;50.888;4.724;2023-06-01T09:57:22;19.30;99.90
25302;DHT22;13243;50.888;4.724;2023-06-01T10:02:24;19.30;99.90
25302;DHT22;13243;50.888;4.724;2023-06-01T10:07:29;19.90;99.90
25302;DHT22;13243;50.888;4.724;2023-06-01T10:12:32;19.90;99.90
25302;DHT22;13243;50.888;4.724;2023-06-01T10:17:35;20.10;99.90
25302;DHT22;13243;50.888;4.724;2023-06-01T10:22:41;20.40;99.90
25302;DHT22;13243;50.888;4.724;2023-06-01T10:27:55;20.50;99.90
25302;DHT22;13243;50.888;4.724;2023-06-01T10:32:58;20.80;99.90
25302;DHT22;13243;50.888;4.724;2023-06-01T10:48:55;21.30;99.90
25302;DHT22;13243;50.888;4.724;2023-06-01T10:54:26;21.30;99.90
25302;DHT22;13243;50.888;4.724;2023-06-01T10:59:28;21.30;99.90
25302;DHT22;13243;50.888;4.724;2023-06-01T11:04:37;21.50;99.90
25302;DHT22;13243;50.888;4.724;2023-06-01T11:09:45;21.40;99.90
25302;DHT22;13243;50.888;4.724;2023-06-01T11:15:08;21.80;99.90
25302;DHT22;13243;50.888;4.724;2023-06-01T11:20:13;21.70;99.90
25302;DHT22;13243;50.888;4.724;2023-06-01T11:25:17;21.90;99.90
25302;DHT22;13243;50.888;4.724;2023-06-01T11:30:19;22.10;99.90
25302;DHT22;13243;50.888;4.724;2023-06-01T11:35:22;22.70;99.90
25302;DHT22;13243;50.888;4.724;2023-06-01T11:40:24;22.80;99.90
25302;DHT22;13243;50.888;4.724;2023-06-01T11:45:31;22.90;99.90
25302;DHT22;13243;50.888;4.724;2023-06-01T11:50:33;23.30;99.90
25302;DHT22;13243;50.888;4.724;2023-06-01T11:55:50;23.40;99.90
25302;DHT22;13243;50.888;4.724;2023-06-01T12:00:53;23.40;99.90
25302;DHT22;13243;50.888;4.724;2023-06-01T12:05:55;23.70;99.90
25302;DHT22;13243;50.888;4.724;2023-06-01T12:10:57;23.40;99.90
25302;DHT22;13243;50.888;4.724;2023-06-01T12:15:59;23.90;99.90
25302;DHT22;13243;50.888;4.724;2023-06-01T12:21:22;23.90;99.90
25302;DHT22;13243;50.888;4.724;2023-06-01T12:26:35;23.80;99.90
25302;DHT22;13243;50.888;4.724;2023-06-01T12:31:37;24.10;99.90
25302;DHT22;13243;50.888;4.724;2023-06-01T12:36:39;24.70;99.90
25302;DHT22;13243;50.888;4.724;2023-06-01T12:41:49;24.30;99.90
25302;DHT22;13243;50.888;4.724;2023-06-01T12:46:59;24.40;99.90
25302;DHT22;13243;50.888;4.724;2023-06-01T12:52:02;24.50;99.90
25302;DHT22;13243;50.888;4.724;2023-06-01T12:57:12;25.30;99.90
25302;DHT22;13243;50.888;4.724;2023-06-01T13:02:15;25.40;99.90
25302;DHT22;13243;50.888;4.724;2023-06-01T13:07:17;25.30;99.90
25302;DHT22;13243;50.888;4.724;2023-06-01T13:12:19;25.90;99.90
25302;DHT22;13243;50.888;4.724;2023-06-01T13:17:21;25.90;99.90
25302;DHT22;13243;50.888;4.724;2023-06-01T13:22:23;26.20;99.90
25302;DHT22;13243;50.888;4.724;2023-06-01T13:27:25;26.00;99.90
25302;DHT22;13243;50.888;4.724;2023-06-01T13:32:27;26.20;99.90
25302;DHT22;13243;50.888;4.724;2023-06-01T13:37:29;26.80;99.90
25302;DHT22;13243;50.888;4.724;2023-06-01T13:42:31;26.80;99.90
25302;DHT22;13243;50.888;4.724;2023-06-01T13:47:39;27.30;99.90
25302;DHT22;13243;50.888;4.724;2023-06-01T13:52:41;27.00;99.90
25302;DHT22;13243;50.888;4.724;2023-06-01T13:57:43;27.30;99.90
25302;DHT22;13243;50.888;4.724;2023-06-01T14:02:46;27.20;99.90
25302;DHT22;13243;50.888;4.724;2023-06-01T14:07:48;27.70;99.90
25302;DHT22;13243;50.888;4.724;2023-06-01T14:12:50;28.10;99.90
25302;DHT22;13243;50.888;4.724;2023-06-01T14:17:51;27.80;99.90
25302;DHT22;13243;50.888;4.724;2023-06-01T14:22:53;27.80;99.90
25302;DHT22;13243;50.888;4.724;2023-06-01T14:27:55;28.40;99.90
25302;DHT22;13243;50.888;4.724;2023-06-01T14:32:57;28.00;99.90
25302;DHT22;13243;50.888;4.724;2023-06-01T14:37:59;28.80;99.90
25302;DHT22;13243;50.888;4.724;2023-06-01T14:43:01;29.10;99.90
25302;DHT22;13243;50.888;4.724;2023-06-01T14:48:03;28.60;99.90
25302;DHT22;13243;50.888;4.724;2023-06-01T14:53:05;28.80;99.90
25302;DHT22;13243;50.888;4.724;2023-06-01T14:58:08;29.10;99.90
25302;DHT22;13243;50.888;4.724;2023-06-01T15:03:10;29.20;99.90
25302;DHT22;13243;50.888;4.724;2023-06-01T15:08:12;29.40;99.90
25302;DHT22;13243;50.888;4.724;2023-06-01T15:13:16;29.50;99.60
25302;DHT22;13243;50.888;4.724;2023-06-01T15:18:18;29.50;99.90
25302;DHT22;13243;50.888;4.724;2023-06-01T15:23:22;29.60;99.90
25302;DHT22;13243;50.888;4.724;2023-06-01T15:28:24;29.90;99.90
25302;DHT22;13243;50.888;4.724;2023-06-01T15:33:27;29.50;99.90
25302;DHT22;13243;50.888;4.724;2023-06-01T15:38:29;29.90;99.90
25302;DHT22;13243;50.888;4.724;2023-06-01T15:43:34;29.60;99.90
25302;DHT22;13243;50.888;4.724;2023-06-01T15:48:36;29.80;99.90
25302;DHT22;13243;50.888;4.724;2023-06-01T15:53:41;29.10;99.90
25302;DHT22;13243;50.888;4.724;2023-06-01T15:58:43;29.20;99.90
25302;DHT22;13243;50.888;4.724;2023-06-01T16:03:44;29.50;99.90
25302;DHT22;13243;50.888;4.724;2023-06-01T16:08:46;29.40;99.90
25302;DHT22;13243;50.888;4.724;2023-06-01T16:13:48;29.70;99.90
25302;DHT22;13243;50.888;4.724;2023-06-01T16:18:50;29.20;99.90
25302;DHT22;13243;50.888;4.724;2023-06-01T16:23:52;29.60;99.40
25302;DHT22;13243;50.888;4.724;2023-06-01T16:28:54;28.80;99.90
25302;DHT22;13243;50.888;4.724;2023-06-01T16:33:56;29.40;99.60
25302;DHT22;13243;50.888;4.724;2023-06-01T16:38:58;29.20;99.80
25302;DHT22;13243;50.888;4.724;2023-06-01T16:44:00;29.30;99.80
25302;DHT22;13243;50.888;4.724;2023-06-01T16:49:02;29.00;99.40
25302;DHT22;13243;50.888;4.724;2023-06-01T16:54:04;29.00;99.70
25302;DHT22;13243;50.888;4.724;2023-06-01T16:59:06;29.50;99.70
25302;DHT22;13243;50.888;4.724;2023-06-01T17:04:08;28.90;99.90
25302;DHT22;13243;50.888;4.724;2023-06-01T17:09:12;28.70;99.90
25302;DHT22;13243;50.888;4.724;2023-06-01T17:14:15;28.00;99.90
25302;DHT22;13243;50.888;4.724;2023-06-01T17:19:17;28.40;99.90
25302;DHT22;13243;50.888;4.724;2023-06-01T17:24:19;28.10;99.90
25302;DHT22;13243;50.888;4.724;2023-06-01T17:29:21;27.90;99.90
25302;DHT22;13243;50.888;4.724;2023-06-01T17:34:23;27.40;99.90
25302;DHT22;13243;50.888;4.724;2023-06-01T17:39:24;27.10;99.90
25302;DHT22;13243;50.888;4.724;2023-06-01T17:44:27;26.60;99.90
25302;DHT22;13243;50.888;4.724;2023-06-01T17:49:29;26.20;99.90
25302;DHT22;13243;50.888;4.724;2023-06-01T17:54:31;26.10;99.90
25302;DHT22;13243;50.888;4.724;2023-06-01T17:59:33;25.70;99.90
25302;DHT22;13243;50.888;4.724;2023-06-01T18:04:35;25.00;99.90
25302;DHT22;13243;50.888;4.724;2023-06-01T18:09:37;24.10;99.90
25302;DHT22;13243;50.888;4.724;2023-06-01T18:14:38;23.30;99.90
25302;DHT22;13243;50.888;4.724;2023-06-01T18:19:41;22.90;99.90
25302;DHT22;13243;50.888;4.724;2023-06-01T18:24:43;22.40;99.90
25302;DHT22;13243;50.888;4.724;2023-06-01T18:29:44;22.10;99.90
25302;DHT22;13243;50.888;4.724;2023-06-01T18:34:46;21.60;99.90
25302;DHT22;13243;50.888;4.724;2023-06-01T18:39:48;21.50;99.90
25302;DHT22;13243;50.888;4.724;2023-06-01T18:44:50;21.30;99.90
25302;DHT22;13243;50.888;4.724;2023-06-01T18:49:53;21.30;99.90
25302;DHT22;13243;50.888;4.724;2023-06-01T18:54:55;21.20;99.90
25302;DHT22;13243;50.888;4.724;2023-06-01T18:59:58;21.20;99.90
25302;DHT22;13243;50.888;4.724;2023-06-01T19:05:00;21.00;99.90
25302;DHT22;13243;50.888;4.724;2023-06-01T19:10:10;20.90;99.90
25302;DHT22;13243;50.888;4.724;2023-06-01T19:15:13;20.50;99.90
25302;DHT22;13243;50.888;4.724;2023-06-01T19:25:38;19.80;99.90
25302;DHT22;13243;50.888;4.724;2023-06-01T19:30:45;19.60;99.90
25302;DHT22;13243;50.888;4.724;2023-06-01T19:35:47;19.50;99.90
25302;DHT22;13243;50.888;4.724;2023-06-01T19:40:49;19.30;99.90
25302;DHT22;13243;50.888;4.724;2023-06-01T19:45:51;19.00;99.90
25302;DHT22;13243;50.888;4.724;2023-06-01T19:50:55;19.00;99.90
25302;DHT22;13243;50.888;4.724;2023-06-01T19:55:57;18.90;99.90
25302;DHT22;13243;50.888;4.724;2023-06-01T20:01:01;18.70;99.90
25302;DHT22;13243;50.888;4.724;2023-06-01T20:06:07;18.50;99.90
25302;DHT22;13243;50.888;4.724;2023-06-01T20:11:10;18.30;99.90
25302;DHT22;13243;50.888;4.724;2023-06-01T20:16:14;18.40;99.90
25302;DHT22;13243;50.888;4.724;2023-06-01T20:21:19;18.30;99.90
25302;DHT22;13243;50.888;4.724;2023-06-01T20:26:21;18.20;99.90
25302;DHT22;13243;50.888;4.724;2023-06-01T20:31:24;18.00;99.90
25302;DHT22;13243;50.888;4.724;2023-06-01T20:36:29;17.90;99.90
25302;DHT22;13243;50.888;4.724;2023-06-01T20:41:34;17.90;99.90
25302;DHT22;13243;50.888;4.724;2023-06-01T20:46:36;17.90;99.90
25302;DHT22;13243;50.888;4.724;2023-06-01T20:51:39;17.80;99.90
25302;DHT22;13243;50.888;4.724;2023-06-01T20:56:49;17.60;99.90
25302;DHT22;13243;50.888;4.724;2023-06-01T21:01:57;17.40;99.90
25302;DHT22;13243;50.888;4.724;2023-06-01T21:07:00;17.40;99.90
25302;DHT22;13243;50.888;4.724;2023-06-01T21:12:02;17.10;99.90
25302;DHT22;13243;50.888;4.724;2023-06-01T21:17:05;17.20;99.90
25302;DHT22;13243;50.888;4.724;2023-06-01T21:22:07;17.40;99.90
25302;DHT22;13243;50.888;4.724;2023-06-01T21:27:09;17.30;99.90
25302;DHT22;13243;50.888;4.724;2023-06-01T21:32:11;17.30;99.90
25302;DHT22;13243;50.888;4.724;2023-06-01T21:37:13;17.30;99.90
25302;DHT22;13243;50.888;4.724;2023-06-01T21:42:15;17.20;99.90
25302;DHT22;13243;50.888;4.724;2023-06-01T21:47:17;17.00;99.90
25302;DHT22;13243;50.888;4.724;2023-06-01T21:52:19;16.70;99.90
25302;DHT22;13243;50.888;4.724;2023-06-01T21:57:21;16.70;99.90
25302;DHT22;13243;50.888;4.724;2023-06-01T22:02:23;16.50;99.90
25302;DHT22;13243;50.888;4.724;2023-06-01T22:07:25;16.50;99.90
25302;DHT22;13243;50.888;4.724;2023-06-01T22:12:30;16.30;99.90
25302;DHT22;13243;50.888;4.724;2023-06-01T22:17:36;16.50;99.90
25302;DHT22;13243;50.888;4.724;2023-06-01T22:22:38;16.50;99.90
25302;DHT22;13243;50.888;4.724;2023-06-01T22:27:40;16.40;99.90
25302;DHT22;13243;50.888;4.724;2023-06-01T22:32:42;16.60;99.90
25302;DHT22;13243;50.888;4.724;2023-06-01T22:37:44;16.60;99.90
25302;DHT22;13243;50.888;4.724;2023-06-01T22:42:46;16.50;99.90
25302;DHT22;13243;50.888;4.724;2023-06-01T22:47:48;16.40;99.90
25302;DHT22;13243;50.888;4.724;2023-06-01T22:52:51;16.10;99.90
25302;DHT22;13243;50.888;4.724;2023-06-01T22:57:53;16.20;99.90
25302;DHT22;13243;50.888;4.724;2023-06-01T23:02:55;16.10;99.90
25302;DHT22;13243;50.888;4.724;2023-06-01T23:07:57;16.20;99.90
25302;DHT22;13243;50.888;4.724;2023-06-01T23:12:59;16.30;99.90
25302;DHT22;13243;50.888;4.724;2023-06-01T23:18:05;16.30;99.90
25302;DHT22;13243;50.888;4.724;2023-06-01T23:23:09;16.20;99.90
25302;DHT22;13243;50.888;4.724;2023-06-01T23:28:13;16.20;99.90
25302;DHT22;13243;50.888;4.724;2023-06-01T23:33:16;16.30;99.90
25302;DHT22;13243;50.888;4.724;2023-06-01T23:38:18;16.10;99.90
25302;DHT22;13243;50.888;4.724;2023-06-01T23:43:20;16.00;99.90
25302;DHT22;13243;50.888;4.724;2023-06-01T23:48:22;16.00;99.90
25302;DHT22;13243;50.888;4.724;2023-06-01T23:53:24;15.70;99.90
25302;DHT22;13243;50.888;4.724;2023-06-01T23:58:26;15.90;99.90
